sensor_id;sensor_type;location;lat;lon;timestamp;P1;durP1;ratioP1;P2;durP2;ratioP2
12840;SDS011;6487;48.626;12.486;2023-05-14T00:00:22;4.97;;;4.47;;
12840;SDS011;6487;48.626;12.486;2023-05-14T00:02:51;5.77;;;4.70;;
12840;SDS011;6487;48.626;12.486;2023-05-14T00:05:19;5.30;;;4.80;;
12840;SDS011;6487;48.626;12.486;2023-05-14T00:07:48;5.67;;;4.90;;
12840;SDS011;6487;48.626;12.486;2023-05-14T00:10:16;5.67;;;4.73;;
12840;SDS011;6487;48.626;12.486;2023-05-14T00:12:47;4.70;;;4.30;;
12840;SDS011;6487;48.626;12.486;2023-05-14T00:15:17;4.57;;;4.17;;
12840;SDS011;6487;48.626;12.486;2023-05-14T00:17:47;4.93;;;4.27;;
12840;SDS011;6487;48.626;12.486;2023-05-14T00:20:15;4.70;;;4.30;;
12840;SDS011;6487;48.626;12.486;2023-05-14T00:22:45;5.47;;;4.33;;
12840;SDS011;6487;48.626;12.486;2023-05-14T00:25:19;5.20;;;4.70;;
12840;SDS011;6487;48.626;12.486;2023-05-14T00:27:50;5.80;;;4.77;;
12840;SDS011;6487;48.626;12.486;2023-05-14T00:30:19;5.03;;;4.53;;
12840;SDS011;6487;48.626;12.486;2023-05-14T00:32:49;4.90;;;4.50;;
12840;SDS011;6487;48.626;12.486;2023-05-14T00:35:18;5.80;;;4.47;;
12840;SDS011;6487;48.626;12.486;2023-05-14T00:37:46;5.30;;;4.80;;
12840;SDS011;6487;48.626;12.486;2023-05-14T00:40:15;5.17;;;4.67;;
12840;SDS011;6487;48.626;12.486;2023-05-14T00:42:46;5.00;;;4.50;;
12840;SDS011;6487;48.626;12.486;2023-05-14T00:45:15;5.43;;;4.83;;
12840;SDS011;6487;48.626;12.486;2023-05-14T00:47:43;5.83;;;5.23;;
12840;SDS011;6487;48.626;12.486;2023-05-14T00:50:13;5.50;;;4.80;;
12840;SDS011;6487;48.626;12.486;2023-05-14T00:52:42;5.73;;;5.20;;
12840;SDS011;6487;48.626;12.486;2023-05-14T00:55:14;5.80;;;5.17;;
12840;SDS011;6487;48.626;12.486;2023-05-14T00:57:43;6.70;;;6.03;;
12840;SDS011;6487;48.626;12.486;2023-05-14T01:00:12;8.67;;;7.87;;
12840;SDS011;6487;48.626;12.486;2023-05-14T01:02:42;7.63;;;6.33;;
12840;SDS011;6487;48.626;12.486;2023-05-14T01:05:10;5.73;;;5.23;;
12840;SDS011;6487;48.626;12.486;2023-05-14T01:07:43;5.93;;;5.43;;
12840;SDS011;6487;48.626;12.486;2023-05-14T01:10:23;6.27;;;5.23;;
12840;SDS011;6487;48.626;12.486;2023-05-14T01:13:01;6.37;;;5.33;;
12840;SDS011;6487;48.626;12.486;2023-05-14T01:15:35;6.10;;;5.60;;
12840;SDS011;6487;48.626;12.486;2023-05-14T01:18:07;6.53;;;5.93;;
12840;SDS011;6487;48.626;12.486;2023-05-14T01:20:38;6.07;;;5.47;;
12840;SDS011;6487;48.626;12.486;2023-05-14T01:23:08;5.90;;;5.40;;
12840;SDS011;6487;48.626;12.486;2023-05-14T01:25:37;5.80;;;5.03;;
12840;SDS011;6487;48.626;12.486;2023-05-14T01:28:07;5.60;;;5.10;;
12840;SDS011;6487;48.626;12.486;2023-05-14T01:30:41;5.77;;;5.17;;
12840;SDS011;6487;48.626;12.486;2023-05-14T01:33:17;6.10;;;4.63;;
12840;SDS011;6487;48.626;12.486;2023-05-14T01:35:46;7.93;;;6.13;;
12840;SDS011;6487;48.626;12.486;2023-05-14T01:38:20;6.57;;;5.93;;
12840;SDS011;6487;48.626;12.486;2023-05-14T01:40:49;6.53;;;5.93;;
12840;SDS011;6487;48.626;12.486;2023-05-14T01:43:18;8.77;;;7.80;;
12840;SDS011;6487;48.626;12.486;2023-05-14T01:45:47;8.67;;;7.77;;
12840;SDS011;6487;48.626;12.486;2023-05-14T01:48:16;11.00;;;7.17;;
12840;SDS011;6487;48.626;12.486;2023-05-14T01:50:44;6.77;;;6.07;;
12840;SDS011;6487;48.626;12.486;2023-05-14T01:53:13;7.50;;;6.30;;
12840;SDS011;6487;48.626;12.486;2023-05-14T01:55:42;6.70;;;6.00;;
12840;SDS011;6487;48.626;12.486;2023-05-14T01:58:11;6.07;;;5.43;;
12840;SDS011;6487;48.626;12.486;2023-05-14T02:00:39;6.00;;;5.50;;
12840;SDS011;6487;48.626;12.486;2023-05-14T02:03:07;6.07;;;5.47;;
12840;SDS011;6487;48.626;12.486;2023-05-14T02:05:36;6.93;;;5.97;;
12840;SDS011;6487;48.626;12.486;2023-05-14T02:08:04;6.70;;;5.97;;
12840;SDS011;6487;48.626;12.486;2023-05-14T02:10:33;6.57;;;5.63;;
12840;SDS011;6487;48.626;12.486;2023-05-14T02:13:05;7.03;;;6.33;;
12840;SDS011;6487;48.626;12.486;2023-05-14T02:15:34;9.00;;;6.00;;
12840;SDS011;6487;48.626;12.486;2023-05-14T02:18:03;7.03;;;6.20;;
12840;SDS011;6487;48.626;12.486;2023-05-14T02:20:31;6.23;;;5.70;;
12840;SDS011;6487;48.626;12.486;2023-05-14T02:23:02;8.30;;;6.63;;
12840;SDS011;6487;48.626;12.486;2023-05-14T02:25:31;6.60;;;5.97;;
12840;SDS011;6487;48.626;12.486;2023-05-14T02:27:59;6.30;;;5.57;;
12840;SDS011;6487;48.626;12.486;2023-05-14T02:30:29;7.57;;;6.80;;
12840;SDS011;6487;48.626;12.486;2023-05-14T02:32:57;6.87;;;6.17;;
12840;SDS011;6487;48.626;12.486;2023-05-14T02:35:26;7.70;;;6.57;;
12840;SDS011;6487;48.626;12.486;2023-05-14T02:37:54;7.13;;;6.20;;
12840;SDS011;6487;48.626;12.486;2023-05-14T02:40:22;6.87;;;6.17;;
12840;SDS011;6487;48.626;12.486;2023-05-14T02:42:51;7.50;;;6.63;;
12840;SDS011;6487;48.626;12.486;2023-05-14T02:45:21;6.70;;;6.10;;
12840;SDS011;6487;48.626;12.486;2023-05-14T02:47:51;7.10;;;6.30;;
12840;SDS011;6487;48.626;12.486;2023-05-14T02:50:19;7.47;;;5.87;;
12840;SDS011;6487;48.626;12.486;2023-05-14T02:52:48;6.50;;;5.90;;
12840;SDS011;6487;48.626;12.486;2023-05-14T02:55:16;9.00;;;6.10;;
12840;SDS011;6487;48.626;12.486;2023-05-14T02:57:44;6.87;;;5.50;;
12840;SDS011;6487;48.626;12.486;2023-05-14T03:00:13;9.60;;;5.70;;
12840;SDS011;6487;48.626;12.486;2023-05-14T03:02:42;7.03;;;5.97;;
12840;SDS011;6487;48.626;12.486;2023-05-14T03:05:12;5.93;;;4.93;;
12840;SDS011;6487;48.626;12.486;2023-05-14T03:07:41;6.07;;;5.53;;
12840;SDS011;6487;48.626;12.486;2023-05-14T03:10:09;7.57;;;5.77;;
12840;SDS011;6487;48.626;12.486;2023-05-14T03:12:37;5.93;;;5.43;;
12840;SDS011;6487;48.626;12.486;2023-05-14T03:15:06;9.77;;;5.60;;
12840;SDS011;6487;48.626;12.486;2023-05-14T03:17:36;6.30;;;4.93;;
12840;SDS011;6487;48.626;12.486;2023-05-14T03:20:05;6.33;;;5.57;;
12840;SDS011;6487;48.626;12.486;2023-05-14T03:22:35;5.90;;;5.30;;
12840;SDS011;6487;48.626;12.486;2023-05-14T03:25:04;8.63;;;6.03;;
12840;SDS011;6487;48.626;12.486;2023-05-14T03:27:33;6.90;;;5.87;;
12840;SDS011;6487;48.626;12.486;2023-05-14T03:30:01;6.37;;;5.47;;
12840;SDS011;6487;48.626;12.486;2023-05-14T03:32:31;6.47;;;5.50;;
12840;SDS011;6487;48.626;12.486;2023-05-14T03:34:59;6.80;;;6.20;;
12840;SDS011;6487;48.626;12.486;2023-05-14T03:37:27;6.70;;;6.10;;
12840;SDS011;6487;48.626;12.486;2023-05-14T03:39:57;7.80;;;5.40;;
12840;SDS011;6487;48.626;12.486;2023-05-14T03:42:25;7.30;;;6.33;;
12840;SDS011;6487;48.626;12.486;2023-05-14T03:44:54;6.93;;;5.77;;
12840;SDS011;6487;48.626;12.486;2023-05-14T03:47:22;5.97;;;5.37;;
12840;SDS011;6487;48.626;12.486;2023-05-14T03:49:51;6.53;;;5.83;;
12840;SDS011;6487;48.626;12.486;2023-05-14T03:52:19;7.63;;;5.80;;
12840;SDS011;6487;48.626;12.486;2023-05-14T03:54:47;6.90;;;6.23;;
12840;SDS011;6487;48.626;12.486;2023-05-14T03:57:17;6.03;;;5.43;;
12840;SDS011;6487;48.626;12.486;2023-05-14T03:59:46;10.40;;;5.43;;
12840;SDS011;6487;48.626;12.486;2023-05-14T04:02:14;5.97;;;5.17;;
12840;SDS011;6487;48.626;12.486;2023-05-14T04:04:43;5.90;;;5.20;;
12840;SDS011;6487;48.626;12.486;2023-05-14T04:07:11;6.97;;;4.77;;
12840;SDS011;6487;48.626;12.486;2023-05-14T04:09:39;5.40;;;4.90;;
12840;SDS011;6487;48.626;12.486;2023-05-14T04:12:08;4.97;;;4.57;;
12840;SDS011;6487;48.626;12.486;2023-05-14T04:14:38;4.50;;;4.10;;
12840;SDS011;6487;48.626;12.486;2023-05-14T04:17:06;5.13;;;4.70;;
12840;SDS011;6487;48.626;12.486;2023-05-14T04:19:34;5.30;;;4.70;;
12840;SDS011;6487;48.626;12.486;2023-05-14T04:22:03;5.60;;;4.83;;
12840;SDS011;6487;48.626;12.486;2023-05-14T04:24:31;5.63;;;5.13;;
12840;SDS011;6487;48.626;12.486;2023-05-14T04:27:00;5.27;;;4.70;;
12840;SDS011;6487;48.626;12.486;2023-05-14T04:29:28;5.50;;;4.97;;
12840;SDS011;6487;48.626;12.486;2023-05-14T04:31:58;5.60;;;5.10;;
12840;SDS011;6487;48.626;12.486;2023-05-14T04:34:30;5.73;;;4.87;;
12840;SDS011;6487;48.626;12.486;2023-05-14T04:36:58;5.73;;;5.23;;
12840;SDS011;6487;48.626;12.486;2023-05-14T04:39:28;5.70;;;5.20;;
12840;SDS011;6487;48.626;12.486;2023-05-14T04:41:56;5.03;;;4.57;;
12840;SDS011;6487;48.626;12.486;2023-05-14T04:44:24;5.87;;;5.37;;
12840;SDS011;6487;48.626;12.486;2023-05-14T04:46:53;5.60;;;5.10;;
12840;SDS011;6487;48.626;12.486;2023-05-14T04:49:22;10.00;;;5.53;;
12840;SDS011;6487;48.626;12.486;2023-05-14T04:51:51;5.37;;;4.87;;
12840;SDS011;6487;48.626;12.486;2023-05-14T04:54:19;5.07;;;4.57;;
12840;SDS011;6487;48.626;12.486;2023-05-14T04:56:48;5.47;;;4.77;;
12840;SDS011;6487;48.626;12.486;2023-05-14T04:59:16;5.87;;;5.33;;
12840;SDS011;6487;48.626;12.486;2023-05-14T05:01:44;5.80;;;5.30;;
12840;SDS011;6487;48.626;12.486;2023-05-14T05:04:13;5.90;;;5.37;;
12840;SDS011;6487;48.626;12.486;2023-05-14T05:06:43;5.43;;;4.93;;
12840;SDS011;6487;48.626;12.486;2023-05-14T05:09:12;9.40;;;6.47;;
12840;SDS011;6487;48.626;12.486;2023-05-14T05:11:43;7.17;;;6.07;;
12840;SDS011;6487;48.626;12.486;2023-05-14T05:14:11;7.33;;;6.63;;
12840;SDS011;6487;48.626;12.486;2023-05-14T05:16:40;6.83;;;6.23;;
12840;SDS011;6487;48.626;12.486;2023-05-14T05:19:11;6.47;;;5.87;;
12840;SDS011;6487;48.626;12.486;2023-05-14T05:21:39;6.07;;;5.47;;
12840;SDS011;6487;48.626;12.486;2023-05-14T05:24:09;5.73;;;5.23;;
12840;SDS011;6487;48.626;12.486;2023-05-14T05:26:38;6.90;;;6.20;;
12840;SDS011;6487;48.626;12.486;2023-05-14T05:29:06;6.67;;;6.03;;
12840;SDS011;6487;48.626;12.486;2023-05-14T05:31:38;7.17;;;5.97;;
12840;SDS011;6487;48.626;12.486;2023-05-14T05:34:06;6.90;;;6.30;;
12840;SDS011;6487;48.626;12.486;2023-05-14T05:36:34;7.00;;;6.40;;
12840;SDS011;6487;48.626;12.486;2023-05-14T05:39:03;7.57;;;6.70;;
12840;SDS011;6487;48.626;12.486;2023-05-14T05:41:32;8.40;;;6.20;;
12840;SDS011;6487;48.626;12.486;2023-05-14T05:44:02;7.03;;;6.43;;
12840;SDS011;6487;48.626;12.486;2023-05-14T05:46:31;7.37;;;6.67;;
12840;SDS011;6487;48.626;12.486;2023-05-14T05:48:59;7.57;;;6.87;;
12840;SDS011;6487;48.626;12.486;2023-05-14T05:51:27;7.03;;;6.23;;
12840;SDS011;6487;48.626;12.486;2023-05-14T05:53:56;6.27;;;5.70;;
12840;SDS011;6487;48.626;12.486;2023-05-14T05:56:25;7.13;;;6.47;;
12840;SDS011;6487;48.626;12.486;2023-05-14T05:58:54;8.27;;;6.10;;
12840;SDS011;6487;48.626;12.486;2023-05-14T06:01:22;6.47;;;5.87;;
12840;SDS011;6487;48.626;12.486;2023-05-14T06:03:52;6.30;;;5.70;;
12840;SDS011;6487;48.626;12.486;2023-05-14T06:06:20;5.63;;;5.13;;
12840;SDS011;6487;48.626;12.486;2023-05-14T06:08:48;5.77;;;5.27;;
12840;SDS011;6487;48.626;12.486;2023-05-14T06:11:17;7.43;;;5.40;;
12840;SDS011;6487;48.626;12.486;2023-05-14T06:13:50;6.20;;;5.60;;
12840;SDS011;6487;48.626;12.486;2023-05-14T06:16:20;6.10;;;5.50;;
12840;SDS011;6487;48.626;12.486;2023-05-14T06:18:48;6.07;;;5.57;;
12840;SDS011;6487;48.626;12.486;2023-05-14T06:21:18;5.60;;;5.10;;
12840;SDS011;6487;48.626;12.486;2023-05-14T06:23:46;6.23;;;5.03;;
12840;SDS011;6487;48.626;12.486;2023-05-14T06:26:14;6.30;;;5.70;;
12840;SDS011;6487;48.626;12.486;2023-05-14T06:28:43;5.40;;;5.00;;
12840;SDS011;6487;48.626;12.486;2023-05-14T06:31:11;6.17;;;5.57;;
12840;SDS011;6487;48.626;12.486;2023-05-14T06:33:41;5.60;;;5.20;;
12840;SDS011;6487;48.626;12.486;2023-05-14T06:36:10;6.37;;;5.77;;
12840;SDS011;6487;48.626;12.486;2023-05-14T06:38:38;5.63;;;5.13;;
12840;SDS011;6487;48.626;12.486;2023-05-14T06:41:09;6.73;;;6.13;;
12840;SDS011;6487;48.626;12.486;2023-05-14T06:43:38;5.80;;;5.30;;
12840;SDS011;6487;48.626;12.486;2023-05-14T06:46:06;6.90;;;5.83;;
12840;SDS011;6487;48.626;12.486;2023-05-14T06:48:34;7.83;;;6.27;;
12840;SDS011;6487;48.626;12.486;2023-05-14T06:51:04;6.87;;;6.23;;
12840;SDS011;6487;48.626;12.486;2023-05-14T06:53:36;8.47;;;5.67;;
12840;SDS011;6487;48.626;12.486;2023-05-14T06:56:04;6.93;;;6.30;;
12840;SDS011;6487;48.626;12.486;2023-05-14T06:58:35;7.67;;;6.93;;
12840;SDS011;6487;48.626;12.486;2023-05-14T07:01:04;9.03;;;8.23;;
12840;SDS011;6487;48.626;12.486;2023-05-14T07:03:32;8.73;;;8.00;;
12840;SDS011;6487;48.626;12.486;2023-05-14T07:06:01;9.47;;;8.67;;
12840;SDS011;6487;48.626;12.486;2023-05-14T07:08:31;11.27;;;10.23;;
12840;SDS011;6487;48.626;12.486;2023-05-14T07:10:59;12.73;;;10.47;;
12840;SDS011;6487;48.626;12.486;2023-05-14T07:13:27;11.00;;;10.10;;
12840;SDS011;6487;48.626;12.486;2023-05-14T07:15:56;12.20;;;11.00;;
12840;SDS011;6487;48.626;12.486;2023-05-14T07:18:24;10.97;;;9.97;;
12840;SDS011;6487;48.626;12.486;2023-05-14T07:20:52;11.10;;;10.00;;
12840;SDS011;6487;48.626;12.486;2023-05-14T07:23:21;11.40;;;10.40;;
12840;SDS011;6487;48.626;12.486;2023-05-14T07:25:50;11.27;;;10.23;;
12840;SDS011;6487;48.626;12.486;2023-05-14T07:28:19;10.53;;;9.63;;
12840;SDS011;6487;48.626;12.486;2023-05-14T07:30:47;10.30;;;9.30;;
12840;SDS011;6487;48.626;12.486;2023-05-14T07:33:15;9.40;;;8.50;;
12840;SDS011;6487;48.626;12.486;2023-05-14T07:35:44;8.10;;;7.40;;
12840;SDS011;6487;48.626;12.486;2023-05-14T07:38:12;8.13;;;7.43;;
12840;SDS011;6487;48.626;12.486;2023-05-14T07:40:41;8.27;;;7.57;;
12840;SDS011;6487;48.626;12.486;2023-05-14T07:43:11;7.57;;;6.87;;
12840;SDS011;6487;48.626;12.486;2023-05-14T07:45:39;7.13;;;6.43;;
12840;SDS011;6487;48.626;12.486;2023-05-14T07:48:07;7.63;;;6.93;;
12840;SDS011;6487;48.626;12.486;2023-05-14T07:50:36;7.47;;;6.83;;
12840;SDS011;6487;48.626;12.486;2023-05-14T07:53:05;8.67;;;7.87;;
12840;SDS011;6487;48.626;12.486;2023-05-14T07:55:33;7.00;;;6.47;;
12840;SDS011;6487;48.626;12.486;2023-05-14T07:58:01;8.07;;;7.37;;
12840;SDS011;6487;48.626;12.486;2023-05-14T08:00:36;7.30;;;6.70;;
12840;SDS011;6487;48.626;12.486;2023-05-14T08:03:04;6.87;;;6.27;;
12840;SDS011;6487;48.626;12.486;2023-05-14T08:05:33;6.60;;;6.03;;
12840;SDS011;6487;48.626;12.486;2023-05-14T08:08:04;6.10;;;5.60;;
12840;SDS011;6487;48.626;12.486;2023-05-14T08:10:32;6.03;;;5.53;;
12840;SDS011;6487;48.626;12.486;2023-05-14T08:13:11;6.23;;;5.73;;
12840;SDS011;6487;48.626;12.486;2023-05-14T08:15:40;5.97;;;5.47;;
12840;SDS011;6487;48.626;12.486;2023-05-14T08:18:09;6.20;;;5.70;;
12840;SDS011;6487;48.626;12.486;2023-05-14T08:20:37;5.70;;;5.20;;
12840;SDS011;6487;48.626;12.486;2023-05-14T08:23:06;5.80;;;5.30;;
12840;SDS011;6487;48.626;12.486;2023-05-14T08:25:34;5.43;;;5.03;;
12840;SDS011;6487;48.626;12.486;2023-05-14T08:28:03;5.20;;;4.80;;
12840;SDS011;6487;48.626;12.486;2023-05-14T08:30:31;6.00;;;5.50;;
12840;SDS011;6487;48.626;12.486;2023-05-14T08:33:04;5.27;;;4.87;;
12840;SDS011;6487;48.626;12.486;2023-05-14T08:35:32;5.70;;;5.20;;
12840;SDS011;6487;48.626;12.486;2023-05-14T08:38:01;5.97;;;5.40;;
12840;SDS011;6487;48.626;12.486;2023-05-14T08:40:30;5.50;;;5.00;;
12840;SDS011;6487;48.626;12.486;2023-05-14T08:42:58;5.37;;;4.97;;
12840;SDS011;6487;48.626;12.486;2023-05-14T08:45:29;5.90;;;5.50;;
12840;SDS011;6487;48.626;12.486;2023-05-14T08:48:01;5.83;;;5.33;;
12840;SDS011;6487;48.626;12.486;2023-05-14T08:50:35;6.37;;;5.77;;
12840;SDS011;6487;48.626;12.486;2023-05-14T08:53:04;6.27;;;5.77;;
12840;SDS011;6487;48.626;12.486;2023-05-14T08:55:32;5.57;;;5.10;;
12840;SDS011;6487;48.626;12.486;2023-05-14T08:58:02;5.40;;;4.90;;
12840;SDS011;6487;48.626;12.486;2023-05-14T09:00:30;7.13;;;6.47;;
12840;SDS011;6487;48.626;12.486;2023-05-14T09:02:59;5.90;;;5.43;;
12840;SDS011;6487;48.626;12.486;2023-05-14T09:05:29;6.20;;;5.70;;
12840;SDS011;6487;48.626;12.486;2023-05-14T09:07:58;6.77;;;5.60;;
12840;SDS011;6487;48.626;12.486;2023-05-14T09:10:27;5.97;;;5.37;;
12840;SDS011;6487;48.626;12.486;2023-05-14T09:12:55;5.47;;;5.07;;
12840;SDS011;6487;48.626;12.486;2023-05-14T09:15:23;6.33;;;5.80;;
12840;SDS011;6487;48.626;12.486;2023-05-14T09:17:55;6.53;;;6.03;;
12840;SDS011;6487;48.626;12.486;2023-05-14T09:20:24;6.40;;;5.90;;
12840;SDS011;6487;48.626;12.486;2023-05-14T09:22:55;6.30;;;5.67;;
12840;SDS011;6487;48.626;12.486;2023-05-14T09:25:25;6.43;;;5.90;;
12840;SDS011;6487;48.626;12.486;2023-05-14T09:27:54;6.97;;;6.27;;
12840;SDS011;6487;48.626;12.486;2023-05-14T09:30:24;6.60;;;6.10;;
12840;SDS011;6487;48.626;12.486;2023-05-14T09:32:53;7.30;;;6.60;;
12840;SDS011;6487;48.626;12.486;2023-05-14T09:35:22;6.17;;;5.67;;
12840;SDS011;6487;48.626;12.486;2023-05-14T09:37:51;7.00;;;6.40;;
12840;SDS011;6487;48.626;12.486;2023-05-14T09:40:23;6.63;;;6.07;;
12840;SDS011;6487;48.626;12.486;2023-05-14T09:42:51;6.20;;;5.70;;
12840;SDS011;6487;48.626;12.486;2023-05-14T09:45:21;6.67;;;6.07;;
12840;SDS011;6487;48.626;12.486;2023-05-14T09:47:49;6.67;;;6.07;;
12840;SDS011;6487;48.626;12.486;2023-05-14T09:50:18;6.37;;;5.77;;
12840;SDS011;6487;48.626;12.486;2023-05-14T09:52:47;6.30;;;5.80;;
12840;SDS011;6487;48.626;12.486;2023-05-14T09:55:16;6.90;;;5.60;;
12840;SDS011;6487;48.626;12.486;2023-05-14T09:57:46;6.43;;;5.90;;
12840;SDS011;6487;48.626;12.486;2023-05-14T10:00:15;5.60;;;5.20;;
12840;SDS011;6487;48.626;12.486;2023-05-14T10:02:44;6.70;;;6.00;;
12840;SDS011;6487;48.626;12.486;2023-05-14T10:05:14;8.20;;;7.40;;
12840;SDS011;6487;48.626;12.486;2023-05-14T10:07:45;5.73;;;5.33;;
12840;SDS011;6487;48.626;12.486;2023-05-14T10:10:15;5.97;;;5.47;;
12840;SDS011;6487;48.626;12.486;2023-05-14T10:12:50;5.83;;;5.33;;
12840;SDS011;6487;48.626;12.486;2023-05-14T10:15:26;5.87;;;5.30;;
12840;SDS011;6487;48.626;12.486;2023-05-14T10:18:02;5.43;;;5.03;;
12840;SDS011;6487;48.626;12.486;2023-05-14T10:20:37;5.70;;;5.17;;
12840;SDS011;6487;48.626;12.486;2023-05-14T10:23:07;6.00;;;5.30;;
12840;SDS011;6487;48.626;12.486;2023-05-14T10:25:41;5.40;;;5.00;;
12840;SDS011;6487;48.626;12.486;2023-05-14T10:28:16;5.87;;;5.37;;
12840;SDS011;6487;48.626;12.486;2023-05-14T10:30:45;5.60;;;5.10;;
12840;SDS011;6487;48.626;12.486;2023-05-14T10:33:14;5.70;;;5.20;;
12840;SDS011;6487;48.626;12.486;2023-05-14T10:35:50;6.50;;;6.00;;
12840;SDS011;6487;48.626;12.486;2023-05-14T10:38:27;6.33;;;5.83;;
12840;SDS011;6487;48.626;12.486;2023-05-14T10:40:59;5.73;;;5.23;;
12840;SDS011;6487;48.626;12.486;2023-05-14T10:43:31;5.60;;;5.20;;
12840;SDS011;6487;48.626;12.486;2023-05-14T10:46:04;5.53;;;5.03;;
12840;SDS011;6487;48.626;12.486;2023-05-14T10:48:34;5.20;;;4.80;;
12840;SDS011;6487;48.626;12.486;2023-05-14T10:51:05;5.00;;;4.60;;
12840;SDS011;6487;48.626;12.486;2023-05-14T10:53:36;5.20;;;4.70;;
12840;SDS011;6487;48.626;12.486;2023-05-14T10:56:06;5.53;;;5.13;;
12840;SDS011;6487;48.626;12.486;2023-05-14T10:58:38;5.87;;;5.40;;
12840;SDS011;6487;48.626;12.486;2023-05-14T11:01:09;5.73;;;5.23;;
12840;SDS011;6487;48.626;12.486;2023-05-14T11:03:40;4.87;;;4.50;;
12840;SDS011;6487;48.626;12.486;2023-05-14T11:06:11;5.13;;;4.73;;
12840;SDS011;6487;48.626;12.486;2023-05-14T11:08:42;5.10;;;4.70;;
12840;SDS011;6487;48.626;12.486;2023-05-14T11:11:11;5.20;;;4.80;;
12840;SDS011;6487;48.626;12.486;2023-05-14T11:13:42;5.37;;;4.87;;
12840;SDS011;6487;48.626;12.486;2023-05-14T11:16:11;4.70;;;4.30;;
12840;SDS011;6487;48.626;12.486;2023-05-14T11:18:52;4.67;;;4.23;;
12840;SDS011;6487;48.626;12.486;2023-05-14T11:21:28;4.80;;;4.40;;
12840;SDS011;6487;48.626;12.486;2023-05-14T11:23:59;4.57;;;4.17;;
12840;SDS011;6487;48.626;12.486;2023-05-14T11:26:30;4.40;;;4.00;;
12840;SDS011;6487;48.626;12.486;2023-05-14T11:29:01;4.83;;;4.37;;
12840;SDS011;6487;48.626;12.486;2023-05-14T11:31:31;4.77;;;4.37;;
12840;SDS011;6487;48.626;12.486;2023-05-14T11:33:59;4.13;;;3.83;;
12840;SDS011;6487;48.626;12.486;2023-05-14T11:36:29;4.63;;;4.27;;
12840;SDS011;6487;48.626;12.486;2023-05-14T11:38:58;5.90;;;4.23;;
12840;SDS011;6487;48.626;12.486;2023-05-14T11:41:26;4.57;;;4.17;;
12840;SDS011;6487;48.626;12.486;2023-05-14T11:43:56;4.47;;;4.17;;
12840;SDS011;6487;48.626;12.486;2023-05-14T11:46:27;4.17;;;3.87;;
12840;SDS011;6487;48.626;12.486;2023-05-14T11:48:56;4.80;;;4.10;;
12840;SDS011;6487;48.626;12.486;2023-05-14T11:51:24;3.97;;;3.50;;
12840;SDS011;6487;48.626;12.486;2023-05-14T11:53:53;3.60;;;3.30;;
12840;SDS011;6487;48.626;12.486;2023-05-14T11:56:21;3.40;;;3.10;;
12840;SDS011;6487;48.626;12.486;2023-05-14T11:58:54;3.70;;;3.40;;
12840;SDS011;6487;48.626;12.486;2023-05-14T12:01:23;3.83;;;3.53;;
12840;SDS011;6487;48.626;12.486;2023-05-14T12:03:55;4.50;;;4.20;;
12840;SDS011;6487;48.626;12.486;2023-05-14T12:06:29;4.80;;;3.63;;
12840;SDS011;6487;48.626;12.486;2023-05-14T12:08:58;4.23;;;3.93;;
12840;SDS011;6487;48.626;12.486;2023-05-14T12:11:29;3.23;;;2.93;;
12840;SDS011;6487;48.626;12.486;2023-05-14T12:13:58;3.10;;;2.70;;
12840;SDS011;6487;48.626;12.486;2023-05-14T12:16:28;2.70;;;2.50;;
12840;SDS011;6487;48.626;12.486;2023-05-14T12:19:01;3.10;;;2.90;;
12840;SDS011;6487;48.626;12.486;2023-05-14T12:21:33;3.07;;;2.47;;
12840;SDS011;6487;48.626;12.486;2023-05-14T12:24:01;2.07;;;1.97;;
12840;SDS011;6487;48.626;12.486;2023-05-14T12:26:31;2.40;;;2.20;;
12840;SDS011;6487;48.626;12.486;2023-05-14T12:29:01;3.07;;;2.03;;
12840;SDS011;6487;48.626;12.486;2023-05-14T12:31:30;3.10;;;2.53;;
12840;SDS011;6487;48.626;12.486;2023-05-14T12:34:01;2.40;;;2.20;;
12840;SDS011;6487;48.626;12.486;2023-05-14T12:36:33;2.57;;;2.37;;
12840;SDS011;6487;48.626;12.486;2023-05-14T12:39:03;2.80;;;2.30;;
12840;SDS011;6487;48.626;12.486;2023-05-14T12:41:32;2.47;;;2.27;;
12840;SDS011;6487;48.626;12.486;2023-05-14T12:44:01;2.23;;;2.13;;
12840;SDS011;6487;48.626;12.486;2023-05-14T12:46:31;2.50;;;2.30;;
12840;SDS011;6487;48.626;12.486;2023-05-14T12:49:00;2.93;;;2.67;;
12840;SDS011;6487;48.626;12.486;2023-05-14T12:51:29;2.60;;;2.40;;
12840;SDS011;6487;48.626;12.486;2023-05-14T12:53:58;2.83;;;2.43;;
12840;SDS011;6487;48.626;12.486;2023-05-14T12:56:27;2.80;;;2.60;;
12840;SDS011;6487;48.626;12.486;2023-05-14T12:58:56;2.83;;;2.53;;
12840;SDS011;6487;48.626;12.486;2023-05-14T13:01:31;3.00;;;2.80;;
12840;SDS011;6487;48.626;12.486;2023-05-14T13:03:59;3.07;;;2.60;;
12840;SDS011;6487;48.626;12.486;2023-05-14T13:06:30;3.10;;;2.80;;
12840;SDS011;6487;48.626;12.486;2023-05-14T13:08:59;2.90;;;2.60;;
12840;SDS011;6487;48.626;12.486;2023-05-14T13:11:27;2.97;;;2.77;;
12840;SDS011;6487;48.626;12.486;2023-05-14T13:13:57;2.70;;;2.50;;
12840;SDS011;6487;48.626;12.486;2023-05-14T13:16:26;2.60;;;2.40;;
12840;SDS011;6487;48.626;12.486;2023-05-14T13:18:55;3.20;;;2.07;;
12840;SDS011;6487;48.626;12.486;2023-05-14T13:21:25;3.30;;;1.40;;
12840;SDS011;6487;48.626;12.486;2023-05-14T13:23:54;2.43;;;1.70;;
12840;SDS011;6487;48.626;12.486;2023-05-14T13:26:22;1.67;;;1.43;;
12840;SDS011;6487;48.626;12.486;2023-05-14T13:28:55;2.80;;;1.60;;
12840;SDS011;6487;48.626;12.486;2023-05-14T13:31:23;3.37;;;1.60;;
12840;SDS011;6487;48.626;12.486;2023-05-14T13:33:52;2.07;;;1.50;;
12840;SDS011;6487;48.626;12.486;2023-05-14T13:36:20;1.50;;;1.40;;
12840;SDS011;6487;48.626;12.486;2023-05-14T13:38:50;1.87;;;1.77;;
12840;SDS011;6487;48.626;12.486;2023-05-14T13:41:18;2.97;;;2.00;;
12840;SDS011;6487;48.626;12.486;2023-05-14T13:43:47;3.53;;;2.00;;
12840;SDS011;6487;48.626;12.486;2023-05-14T13:46:15;1.83;;;1.53;;
12840;SDS011;6487;48.626;12.486;2023-05-14T13:48:46;1.40;;;1.30;;
12840;SDS011;6487;48.626;12.486;2023-05-14T13:51:14;1.73;;;1.63;;
12840;SDS011;6487;48.626;12.486;2023-05-14T13:53:43;4.70;;;2.23;;
12840;SDS011;6487;48.626;12.486;2023-05-14T13:56:12;3.80;;;1.70;;
12840;SDS011;6487;48.626;12.486;2023-05-14T13:58:41;2.97;;;2.37;;
12840;SDS011;6487;48.626;12.486;2023-05-14T14:01:13;2.20;;;2.00;;
12840;SDS011;6487;48.626;12.486;2023-05-14T14:03:42;2.47;;;1.97;;
12840;SDS011;6487;48.626;12.486;2023-05-14T14:06:10;4.80;;;2.93;;
12840;SDS011;6487;48.626;12.486;2023-05-14T14:08:39;3.77;;;2.30;;
12840;SDS011;6487;48.626;12.486;2023-05-14T14:13:47;3.40;;;2.70;;
12840;SDS011;6487;48.626;12.486;2023-05-14T14:16:16;2.80;;;2.60;;
12840;SDS011;6487;48.626;12.486;2023-05-14T14:18:50;2.50;;;2.30;;
12840;SDS011;6487;48.626;12.486;2023-05-14T14:21:18;2.37;;;2.23;;
12840;SDS011;6487;48.626;12.486;2023-05-14T14:23:47;2.80;;;2.23;;
12840;SDS011;6487;48.626;12.486;2023-05-14T14:26:15;2.87;;;2.63;;
12840;SDS011;6487;48.626;12.486;2023-05-14T14:28:48;2.60;;;2.40;;
12840;SDS011;6487;48.626;12.486;2023-05-14T14:31:17;3.17;;;1.83;;
12840;SDS011;6487;48.626;12.486;2023-05-14T14:33:45;2.30;;;1.83;;
12840;SDS011;6487;48.626;12.486;2023-05-14T14:36:13;1.73;;;1.63;;
12840;SDS011;6487;48.626;12.486;2023-05-14T14:38:42;2.63;;;2.10;;
12840;SDS011;6487;48.626;12.486;2023-05-14T14:41:10;3.70;;;2.00;;
12840;SDS011;6487;48.626;12.486;2023-05-14T14:43:39;2.20;;;1.70;;
12840;SDS011;6487;48.626;12.486;2023-05-14T14:46:10;3.60;;;2.20;;
12840;SDS011;6487;48.626;12.486;2023-05-14T14:48:41;2.63;;;2.33;;
12840;SDS011;6487;48.626;12.486;2023-05-14T14:51:09;5.27;;;2.43;;
12840;SDS011;6487;48.626;12.486;2023-05-14T14:53:38;2.23;;;2.10;;
12840;SDS011;6487;48.626;12.486;2023-05-14T14:56:08;2.90;;;2.60;;
12840;SDS011;6487;48.626;12.486;2023-05-14T14:58:42;3.30;;;2.53;;
12840;SDS011;6487;48.626;12.486;2023-05-14T15:01:13;2.73;;;2.53;;
12840;SDS011;6487;48.626;12.486;2023-05-14T15:03:42;3.17;;;2.93;;